Time;durP1;ratioP1;P1;durP2;ratioP2;P2;SDS_P1;SDS_P2;PMS_P1;PMS_P2;Temp;Humidity;BMP_temperature;BMP_pressure;BME280_temperature;BME280_humidity;BME280_pressure;Samples;Min_cycle;Max_cycle;Signal;HPM_P1;HPM_P2
2022/02/26 00:00:12;;;;;;;;;42.25;38.50;;;;;6.76;62.77;103005.63;5069632;28;50627;-78
2022/02/26 00:02:38;;;;;;;;;57.25;41.75;;;;;6.80;62.94;103009.38;5072523;28;45478;-77
2022/02/26 00:05:03;;;;;;;;;53.50;40.50;;;;;6.75;62.92;103019.59;5074204;28;58233;-77
2022/02/26 00:07:29;;;;;;;;;54.25;43.25;;;;;6.77;63.05;103019.69;5074195;27;45521;-78
2022/02/26 00:09:54;;;;;;;;;59.25;44.50;;;;;6.74;62.85;103022.13;5075222;27;47215;-77
2022/02/26 00:12:20;;;;;;;;;59.75;42.25;;;;;6.74;63.15;103012.53;5073368;28;45449;-77
2022/02/26 00:14:45;;;;;;;;;57.25;39.25;;;;;6.67;63.22;103010.34;5073910;28;47832;-78
2022/02/26 00:17:10;;;;;;;;;56.25;44.75;;;;;6.67;63.22;103007.72;5075313;28;54359;-76
2022/02/26 00:19:36;;;;;;;;;62.50;42.50;;;;;6.70;63.26;103020.13;5075693;28;45282;-77
2022/02/26 00:22:01;;;;;;;;;60.75;43.00;;;;;6.64;63.43;103022.38;5074856;28;45403;-77
2022/02/26 00:24:27;;;;;;;;;48.25;41.75;;;;;6.60;63.25;103018.63;5070245;28;45413;-78
2022/02/26 00:26:52;;;;;;;;;54.00;43.75;;;;;6.61;63.50;103024.81;5071421;28;45401;-77
2022/02/26 00:29:18;;;;;;;;;59.50;43.25;;;;;6.63;63.27;103033.69;5069770;28;64020;-77
2022/02/26 00:31:43;;;;;;;;;63.75;39.75;;;;;6.61;63.14;103022.19;5077808;27;45434;-77
2022/02/26 00:34:08;;;;;;;;;58.25;46.25;;;;;6.61;63.18;103019.56;5070437;28;57829;-78
2022/02/26 00:36:34;;;;;;;;;62.25;45.50;;;;;6.59;63.58;103019.44;5077299;28;56101;-77
2022/02/26 00:38:59;;;;;;;;;54.75;44.00;;;;;6.57;63.44;103018.47;5070174;28;46347;-77
2022/02/26 00:41:28;;;;;;;;;60.25;43.25;;;;;6.57;63.42;103028.97;5074196;28;45385;-78
2022/02/26 00:43:53;;;;;;;;;55.75;45.25;;;;;6.56;63.59;103032.41;5070689;27;45418;-77
2022/02/26 00:46:18;;;;;;;;;62.25;47.25;;;;;6.55;63.71;103027.94;5078696;28;56258;-77
2022/02/26 00:51:27;;;;;;;;;61.75;44.50;;;;;6.51;63.49;103024.22;5071719;28;45443;-77
2022/02/26 00:53:53;;;;;;;;;49.25;42.50;;;;;6.50;63.81;103024.16;5077522;28;45711;-77
2022/02/26 00:56:18;;;;;;;;;49.50;41.25;;;;;6.50;63.48;103034.66;5077881;28;57494;-78
2022/02/26 00:58:44;;;;;;;;;60.00;46.00;;;;;6.47;63.78;103037.06;5077373;28;63245;-75
2022/02/26 01:01:09;;;;;;;;;67.25;45.75;;;;;6.45;63.99;103031.72;5073436;28;45362;-78
2022/02/26 01:03:34;;;;;;;;;66.00;46.75;;;;;6.45;64.05;103039.59;5069282;28;58423;-78
2022/02/26 01:06:00;;;;;;;;;65.00;46.00;;;;;6.45;63.59;103038.69;5076890;28;56860;-77
2022/02/26 01:08:25;;;;;;;;;57.25;44.00;;;;;6.43;63.97;103029.78;5075286;28;57837;-77
2022/02/26 01:10:50;;;;;;;;;59.25;43.25;;;;;6.40;64.17;103037.50;5069657;28;58110;-77
2022/02/26 01:13:16;;;;;;;;;43.50;38.50;;;;;6.36;63.72;103035.47;5073827;28;53374;-77
2022/02/26 01:15:41;;;;;;;;;56.50;42.75;;;;;6.38;63.66;103047.88;5071093;28;55510;-77
2022/02/26 01:18:07;;;;;;;;;59.25;43.75;;;;;6.37;63.86;103038.19;5073936;28;63285;-77
2022/02/26 01:20:32;;;;;;;;;55.75;42.50;;;;;6.30;63.78;103023.78;5077796;28;45582;-79
2022/02/26 01:22:57;;;;;;;;;58.75;44.00;;;;;6.33;63.85;103037.91;5078133;28;54680;-77
2022/02/26 01:25:23;;;;;;;;;58.75;43.50;;;;;6.33;64.17;103040.50;5068838;28;45424;-77
2022/02/26 01:27:48;;;;;;;;;54.75;40.75;;;;;6.34;63.97;103050.19;5077363;28;60255;-78
2022/02/26 01:30:13;;;;;;;;;54.25;42.25;;;;;6.30;64.08;103057.88;5077722;28;59568;-78
2022/02/26 01:32:41;;;;;;;;;61.75;45.75;;;;;6.28;64.24;103053.34;5077513;28;59606;-77
2022/02/26 01:35:07;;;;;;;;;64.00;46.25;;;;;6.24;64.43;103039.13;5074967;27;45363;-78
2022/02/26 01:37:32;;;;;;;;;53.50;42.50;;;;;6.21;64.27;103030.16;5077929;28;46573;-79
2022/02/26 01:39:57;;;;;;;;;54.75;44.75;;;;;6.24;64.23;103048.72;5074567;28;60645;-78
2022/02/26 01:42:23;;;;;;;;;50.75;44.00;;;;;6.23;64.26;103046.88;5070322;28;46230;-77
2022/02/26 01:44:49;;;;;;;;;52.00;38.25;;;;;6.20;64.18;103052.84;5069894;28;45470;-78
2022/02/26 01:47:14;;;;;;;;;61.25;43.00;;;;;6.16;64.33;103042.06;5073905;27;47482;-77
2022/02/26 01:49:40;;;;;;;;;60.25;44.50;;;;;6.15;64.41;103035.00;5077887;28;45464;-78
2022/02/26 01:52:06;;;;;;;;;61.00;44.00;;;;;6.18;64.28;103044.00;5073492;27;45502;-77
2022/02/26 01:54:32;;;;;;;;;60.50;45.75;;;;;6.18;64.59;103056.19;5072613;27;45520;-78
2022/02/26 01:56:57;;;;;;;;;62.50;45.00;;;;;6.17;64.53;103062.25;5073616;28;58242;-77
2022/02/26 01:59:22;;;;;;;;;60.00;45.00;;;;;6.16;64.48;103061.34;5071475;27;51895;-77
2022/02/26 02:01:48;;;;;;;;;56.50;41.25;;;;;6.15;64.59;103051.66;5076484;28;45637;-79
2022/02/26 02:04:14;;;;;;;;;58.50;43.00;;;;;6.16;64.81;103052.56;5073825;27;45196;-79
2022/02/26 02:06:40;;;;;;;;;51.75;42.75;;;;;6.14;64.94;103052.47;5075055;28;47480;-78
2022/02/26 02:09:06;;;;;;;;;58.75;40.50;;;;;6.14;65.09;103048.94;5077136;27;45302;-77
2022/02/26 02:11:33;;;;;;;;;61.00;43.25;;;;;6.10;64.70;103047.81;5071899;28;45522;-77
2022/02/26 02:13:58;;;;;;;;;46.25;39.75;;;;;6.08;64.87;103038.06;5059803;28;45485;-77
2022/02/26 02:16:23;;;;;;;;;52.75;40.00;;;;;6.11;64.89;103047.00;5071704;28;58027;-77
2022/02/26 02:18:49;;;;;;;;;51.75;41.25;;;;;6.10;64.87;103046.91;5075330;28;56018;-77
2022/02/26 02:21:14;;;;;;;;;47.00;39.25;;;;;6.03;64.61;103032.50;5077393;28;45949;-78
2022/02/26 02:23:41;;;;;;;;;42.50;34.75;;;;;6.07;64.79;103044.09;5077438;28;45410;-78
2022/02/26 02:26:07;;;;;;;;;46.00;37.50;;;;;6.01;65.08;103032.38;5069039;28;46467;-77
2022/02/26 02:28:33;;;;;;;;;44.50;38.25;;;;;6.06;64.82;103043.19;5070905;28;61308;-77
2022/02/26 02:30:58;;;;;;;;;39.00;35.50;;;;;6.06;64.77;103037.94;5075634;27;46565;-77
2022/02/26 02:33:23;;;;;;;;;55.50;42.00;;;;;6.01;64.74;103028.88;5070027;28;46425;-77
2022/02/26 02:35:49;;;;;;;;;55.25;40.75;;;;;6.04;64.92;103043.09;5074664;28;46294;-79
2022/02/26 02:38:16;;;;;;;;;58.75;42.50;;;;;6.01;64.85;103035.00;5077029;27;45454;-77
2022/02/26 02:40:42;;;;;;;;;47.75;38.50;;;;;6.01;64.60;103036.72;5076820;28;45252;-77
2022/02/26 02:43:09;;;;;;;;;38.75;34.50;;;;;5.98;64.77;103034.84;5184024;22;45666;-78
2022/02/26 02:45:35;;;;;;;;;42.00;35.00;;;;;5.93;64.75;103024.84;5095251;27;46739;-77
2022/02/26 02:48:00;;;;;;;;;40.00;33.25;;;;;5.95;64.77;103038.97;5077883;27;45426;-77
2022/02/26 02:50:26;;;;;;;;;35.50;31.25;;;;;5.95;64.64;103032.00;5088983;27;55460;-78
2022/02/26 02:52:51;;;;;;;;;40.50;33.75;;;;;5.93;64.78;103032.72;5097493;27;45171;-77
2022/02/26 02:55:20;;;;;;;;;38.50;32.50;;;;;5.91;64.96;103035.25;5096366;27;47282;-77
2022/02/26 02:57:45;;;;;;;;;41.25;33.25;;;;;5.91;65.09;103039.53;5096516;27;45344;-77
2022/02/26 03:00:12;;;;;;;;;37.50;29.75;;;;;5.90;65.00;103035.09;5096880;27;45475;-77
2022/02/26 03:02:37;;;;;;;;;47.25;38.75;;;;;5.84;64.81;103019.88;5097210;27;45531;-77
2022/02/26 03:05:03;;;;;;;;;35.75;33.00;;;;;5.87;64.93;103024.44;5096615;27;46953;-77
2022/02/26 03:07:28;;;;;;;;;39.25;36.75;;;;;5.86;65.08;103035.69;5092885;27;46237;-78
2022/02/26 03:09:54;;;;;;;;;40.75;31.75;;;;;5.84;64.92;103030.34;5094441;27;48977;-78
2022/02/26 03:12:19;;;;;;;;;49.75;33.50;;;;;5.83;64.81;103020.69;5093367;27;45726;-77
2022/02/26 03:14:45;;;;;;;;;47.00;37.00;;;;;5.82;65.07;103032.00;5094381;27;47018;-78
2022/02/26 03:17:10;;;;;;;;;38.50;35.00;;;;;5.78;64.82;103017.75;5089765;27;59804;-78
2022/02/26 03:19:36;;;;;;;;;35.25;31.75;;;;;5.78;65.03;103014.22;5090304;27;51257;-78
2022/02/26 03:22:01;;;;;;;;;36.00;32.00;;;;;5.75;64.96;103020.19;5094899;27;45464;-78
2022/02/26 03:24:27;;;;;;;;;34.75;32.50;;;;;5.76;65.19;103022.00;5096464;27;47878;-78
2022/02/26 03:26:56;;;;;;;;;32.25;29.00;;;;;5.73;65.48;103026.13;5096627;27;45456;-77
2022/02/26 03:29:23;;;;;;;;;35.50;31.00;;;;;5.71;65.44;103023.41;5093951;27;45227;-78
2022/02/26 03:31:48;;;;;;;;;43.50;31.50;;;;;5.77;66.03;103036.94;5096572;27;46371;-78
2022/02/26 03:34:14;;;;;;;;;32.00;26.75;;;;;5.79;65.84;103022.19;5089417;27;58705;-77
2022/02/26 03:36:39;;;;;;;;;41.75;31.00;;;;;5.79;65.72;103024.81;5095769;27;45420;-78
2022/02/26 03:39:05;;;;;;;;;34.25;27.25;;;;;5.79;65.83;103018.66;5093304;27;45292;-78
2022/02/26 03:41:30;;;;;;;;;35.75;29.25;;;;;5.80;65.48;103028.34;5096874;27;45551;-77
2022/02/26 03:43:56;;;;;;;;;34.00;29.75;;;;;5.80;65.52;103017.84;5095045;27;62200;-79
2022/02/26 03:46:23;;;;;;;;;40.25;32.25;;;;;5.81;65.57;103022.31;5096834;27;45202;-78
2022/02/26 03:48:49;;;;;;;;;35.25;29.75;;;;;5.79;65.65;103019.56;5092129;27;45374;-78
2022/02/26 03:51:15;;;;;;;;;45.75;31.00;;;;;5.77;65.43;103013.34;5097223;27;45191;-78
2022/02/26 03:53:40;;;;;;;;;35.75;31.25;;;;;5.75;65.53;103017.59;5086414;27;47042;-78
2022/02/26 03:56:05;;;;;;;;;33.00;27.25;;;;;5.74;65.53;103014.84;5092067;27;53184;-77
2022/02/26 03:58:31;;;;;;;;;39.50;29.25;;;;;5.72;65.34;103022.59;5090929;27;51257;-79
2022/02/26 04:00:56;;;;;;;;;33.50;28.00;;;;;5.66;65.18;103018.69;5093730;27;50847;-77
2022/02/26 04:03:22;;;;;;;;;42.50;31.00;;;;;5.69;65.24;103024.09;5098067;27;61333;-77
2022/02/26 04:05:47;;;;;;;;;35.25;28.75;;;;;5.66;65.30;103022.22;5098726;27;52433;-77
2022/02/26 04:08:12;;;;;;;;;28.50;23.25;;;;;5.64;65.10;103036.91;5099384;27;50716;-77
2022/02/26 04:10:38;;;;;;;;;34.50;29.00;;;;;5.62;65.02;103037.63;5096019;27;45483;-79
2022/02/26 04:13:03;;;;;;;;;32.00;27.00;;;;;5.55;65.15;103035.41;5093145;27;46252;-78
2022/02/26 04:15:29;;;;;;;;;31.75;25.00;;;;;5.57;65.49;103039.94;5099547;27;46847;-78
2022/02/26 04:17:54;;;;;;;;;42.75;27.00;;;;;5.56;65.49;103050.31;5094196;27;45477;-78
2022/02/26 04:20:20;;;;;;;;;36.25;30.75;;;;;5.57;65.30;103049.50;5097981;27;52193;-79
2022/02/26 04:22:45;;;;;;;;;34.50;29.00;;;;;5.56;65.36;103042.47;5098792;27;58665;-77
2022/02/26 04:25:10;;;;;;;;;36.00;27.00;;;;;5.54;65.24;103050.22;5098941;27;58791;-77
2022/02/26 04:27:38;;;;;;;;;40.00;31.50;;;;;5.53;65.48;103045.75;5099572;27;45330;-77
2022/02/26 04:30:08;;;;;;;;;33.50;30.50;;;;;5.52;65.50;103036.09;5100012;27;46033;-79
2022/02/26 04:32:34;;;;;;;;;37.00;33.00;;;;;5.51;65.57;103044.78;5096064;27;46277;-77
2022/02/26 04:34:59;;;;;;;;;31.25;25.50;;;;;5.49;65.48;103041.16;5099605;27;45472;-77
2022/02/26 04:37:25;;;;;;;;;34.50;30.75;;;;;5.47;65.30;103051.50;5098909;27;47471;-78
2022/02/26 04:39:50;;;;;;;;;38.25;27.00;;;;;5.45;65.52;103040.03;5099306;27;52981;-77
2022/02/26 04:42:17;;;;;;;;;39.25;30.50;;;;;5.45;65.53;103045.25;5093837;27;46568;-78
2022/02/26 04:44:44;;;;;;;;;45.75;32.25;;;;;5.43;65.47;103048.56;5097553;27;45452;-78
2022/02/26 04:47:10;;;;;;;;;30.25;25.75;;;;;5.42;65.70;103057.25;5094175;27;45501;-78
2022/02/26 04:49:35;;;;;;;;;40.00;31.00;;;;;5.41;65.32;103043.25;5098323;27;45351;-77
2022/02/26 04:52:01;;;;;;;;;39.25;28.25;;;;;5.41;65.40;103047.56;5099577;27;56712;-78
2022/02/26 04:54:27;;;;;;;;;42.25;30.75;;;;;5.40;65.59;103046.66;5099374;27;45480;-77
2022/02/26 04:56:52;;;;;;;;;35.75;29.25;;;;;5.39;65.55;103044.84;5098779;27;45301;-79
2022/02/26 04:59:18;;;;;;;;;35.50;31.50;;;;;5.36;65.64;103035.88;5098986;27;45321;-78
2022/02/26 05:01:43;;;;;;;;;41.25;30.00;;;;;5.35;65.21;103040.22;5096869;27;54621;-77
2022/02/26 05:04:08;;;;;;;;;37.75;32.75;;;;;5.33;65.40;103035.69;5099306;27;45319;-77
2022/02/26 05:06:34;;;;;;;;;30.25;28.00;;;;;5.30;65.79;103038.09;5097256;27;56993;-77
2022/02/26 05:08:59;;;;;;;;;37.25;26.50;;;;;5.23;65.41;103027.19;5093805;27;45468;-78
2022/02/26 05:11:25;;;;;;;;;42.00;30.25;;;;;5.23;65.74;103036.78;5094238;27;64159;-77
2022/02/26 05:13:50;;;;;;;;;37.00;30.25;;;;;5.28;65.69;103044.94;5095195;27;57239;-77
2022/02/26 05:16:15;;;;;;;;;41.75;31.50;;;;;5.25;65.59;103040.38;5091060;27;51880;-77
2022/02/26 05:18:41;;;;;;;;;37.50;26.00;;;;;5.23;65.31;103042.91;5094743;27;46045;-77
2022/02/26 05:21:06;;;;;;;;;34.25;30.75;;;;;5.22;65.51;103045.44;5094067;27;47171;-78
2022/02/26 05:23:32;;;;;;;;;37.00;31.50;;;;;5.17;65.65;103028.50;5091672;27;45437;-78
2022/02/26 05:25:57;;;;;;;;;40.50;29.75;;;;;5.16;65.38;103038.03;5091072;27;45207;-77
2022/02/26 05:28:22;;;;;;;;;38.00;30.25;;;;;5.20;65.96;103044.41;5098640;27;53711;-77
2022/02/26 05:30:48;;;;;;;;;33.75;29.75;;;;;5.16;65.78;103045.91;5094957;27;61732;-77
2022/02/26 05:33:13;;;;;;;;;35.75;26.50;;;;;5.18;65.84;103043.41;5093178;27;45581;-78
2022/02/26 05:35:39;;;;;;;;;39.25;29.75;;;;;5.16;65.59;103040.66;5095534;27;45447;-79
2022/02/26 05:38:04;;;;;;;;;35.75;26.50;;;;;5.15;65.72;103053.66;5098800;27;45218;-78
2022/02/26 05:40:29;;;;;;;;;29.50;25.75;;;;;5.15;65.53;103051.03;5096207;27;59121;-77
2022/02/26 05:42:55;;;;;;;;;34.25;24.00;;;;;5.12;65.85;103043.91;5097276;27;57294;-78
2022/02/26 05:45:20;;;;;;;;;34.00;28.00;;;;;5.12;65.76;103040.38;5098582;27;45469;-78
2022/02/26 05:47:46;;;;;;;;;34.50;23.75;;;;;5.09;65.95;103046.28;5090907;27;45560;-78
2022/02/26 05:50:12;;;;;;;;;30.00;24.00;;;;;5.10;65.70;103044.56;5097108;27;46437;-78
2022/02/26 05:52:37;;;;;;;;;27.25;22.75;;;;;5.05;65.73;103039.00;5094207;27;45384;-79
2022/02/26 05:55:03;;;;;;;;;22.50;18.50;;;;;5.11;65.91;103042.03;5087343;27;45488;-77
2022/02/26 05:57:29;;;;;;;;;26.75;24.50;;;;;5.09;65.94;103048.91;5092404;27;45511;-78
2022/02/26 05:59:54;;;;;;;;;32.75;22.25;;;;;5.09;66.05;103056.75;5097515;27;47339;-79
2022/02/26 06:02:19;;;;;;;;;36.25;23.00;;;;;5.08;65.90;103040.97;5095061;27;45354;-78
2022/02/26 06:04:45;;;;;;;;;26.75;25.50;;;;;5.07;65.85;103044.38;5092309;27;56441;-77
2022/02/26 06:07:10;;;;;;;;;26.50;23.00;;;;;5.05;66.04;103046.88;5090495;27;45369;-78
2022/02/26 06:09:35;;;;;;;;;31.00;26.00;;;;;5.04;65.84;103045.06;5097520;27;46371;-77
2022/02/26 06:12:01;;;;;;;;;39.00;23.25;;;;;5.04;66.06;103045.06;5089981;27;54581;-79
2022/02/26 06:14:27;;;;;;;;;29.50;26.75;;;;;5.02;65.89;103058.88;5096129;27;45254;-78
2022/02/26 06:16:52;;;;;;;;;37.75;22.00;;;;;4.98;66.08;103053.41;5090221;27;54799;-78
2022/02/26 06:19:17;;;;;;;;;25.25;19.75;;;;;4.98;66.32;103052.50;5097533;27;45680;-78
2022/02/26 06:21:43;;;;;;;;;30.75;25.75;;;;;4.98;66.10;103065.59;5094237;27;45413;-78
2022/02/26 06:24:08;;;;;;;;;29.25;25.50;;;;;4.89;66.20;103041.38;5093648;27;56129;-78
2022/02/26 06:26:34;;;;;;;;;31.50;25.75;;;;;4.96;65.75;103057.63;5096552;27;45213;-77
2022/02/26 06:28:59;;;;;;;;;32.50;23.75;;;;;4.94;66.05;103064.44;5092477;27;46528;-78
2022/02/26 06:31:25;;;;;;;;;29.75;27.25;;;;;4.95;66.04;103060.13;5096389;27;45454;-78
2022/02/26 06:33:50;;;;;;;;;41.25;30.25;;;;;4.95;65.79;103061.06;5093474;27;45406;-78
2022/02/26 06:36:16;;;;;;;;;34.25;26.50;;;;;4.93;66.10;103054.78;5097537;27;53228;-77
2022/02/26 06:38:41;;;;;;;;;30.00;25.75;;;;;4.89;66.35;103052.75;5090631;27;46962;-78
2022/02/26 06:41:06;;;;;;;;;27.75;21.75;;;;;4.93;66.32;103062.66;5094029;27;45544;-77
2022/02/26 06:43:32;;;;;;;;;30.75;22.50;;;;;4.94;66.34;103058.31;5092562;27;45387;-78
2022/02/26 06:45:57;;;;;;;;;23.50;19.50;;;;;4.93;66.29;103062.66;5096183;27;52398;-79
2022/02/26 06:48:23;;;;;;;;;22.50;21.50;;;;;4.90;66.59;103057.22;5112698;27;65187;-79
2022/02/26 06:50:48;;;;;;;;;29.75;22.25;;;;;4.97;66.38;103061.16;5091133;27;45463;-78
2022/02/26 06:53:14;;;;;;;;;25.75;21.50;;;;;4.93;66.48;103056.50;5089200;27;53657;-77
2022/02/26 06:55:39;;;;;;;;;26.75;21.50;;;;;4.98;66.62;103074.34;5094773;27;45535;-79
2022/02/26 06:58:05;;;;;;;;;23.00;20.00;;;;;4.98;66.47;103073.44;5096665;27;46437;-79
2022/02/26 07:00:30;;;;;;;;;27.00;23.75;;;;;5.04;66.73;103067.72;5095602;27;57281;-79
2022/02/26 07:02:56;;;;;;;;;28.25;23.25;;;;;5.00;66.54;103054.41;5092395;27;45667;-78
2022/02/26 07:05:21;;;;;;;;;26.00;21.00;;;;;5.07;66.62;103061.00;5095216;27;45539;-78
2022/02/26 07:07:47;;;;;;;;;25.00;18.75;;;;;5.08;66.58;103060.19;5092631;27;56643;-79
2022/02/26 07:10:12;;;;;;;;;21.00;15.75;;;;;5.11;66.74;103069.94;5092851;27;57478;-79
2022/02/26 07:12:38;;;;;;;;;26.25;19.75;;;;;5.11;66.69;103059.47;5091969;27;45291;-78
2022/02/26 07:15:03;;;;;;;;;22.00;19.75;;;;;5.14;67.16;103060.59;5095376;27;45382;-79
2022/02/26 07:17:29;;;;;;;;;25.75;17.75;;;;;5.18;66.77;103064.34;5091631;27;45504;-79
2022/02/26 07:19:54;;;;;;;;;26.75;18.50;;;;;5.19;66.85;103080.16;5096299;27;45372;-79
2022/02/26 07:22:20;;;;;;;;;28.00;21.25;;;;;5.21;66.80;103064.53;5075951;27;57848;-78
2022/02/26 07:24:46;;;;;;;;;22.25;19.00;;;;;5.26;67.12;103064.06;5095286;27;45468;-79
2022/02/26 07:27:13;;;;;;;;;21.00;16.00;;;;;5.30;66.92;103064.28;5095975;27;46422;-79
2022/02/26 07:29:39;;;;;;;;;27.25;20.00;;;;;5.32;67.36;103060.94;5090703;27;45494;-79
2022/02/26 07:32:05;;;;;;;;;23.75;19.25;;;;;5.36;67.22;103067.31;5091770;27;46316;-80
2022/02/26 07:34:30;;;;;;;;;27.00;19.50;;;;;5.41;67.05;103063.28;5094366;27;45468;-78
2022/02/26 07:36:56;;;;;;;;;23.50;19.00;;;;;5.44;67.08;103063.50;5087585;27;58430;-79
2022/02/26 07:39:21;;;;;;;;;26.75;23.75;;;;;5.46;66.99;103059.28;5095277;27;45535;-78
2022/02/26 07:41:46;;;;;;;;;28.50;22.25;;;;;5.46;67.37;103056.66;5093437;27;54879;-78
2022/02/26 07:44:12;;;;;;;;;24.75;18.75;;;;;5.50;67.22;103062.22;5094073;27;56637;-78
2022/02/26 07:46:38;;;;;;;;;31.25;24.00;;;;;5.55;67.42;103059.91;5093000;27;46295;-78
2022/02/26 07:49:03;;;;;;;;;22.75;20.75;;;;;5.60;67.09;103068.06;5092257;27;57222;-78
2022/02/26 07:51:29;;;;;;;;;29.50;24.50;;;;;5.57;67.11;103054.75;5094934;27;51299;-78
2022/02/26 07:53:54;;;;;;;;;29.50;25.75;;;;;5.65;67.09;103066.66;5094921;27;45487;-79
2022/02/26 07:56:19;;;;;;;;;33.50;25.75;;;;;5.64;67.70;103057.88;5090698;27;47123;-79
2022/02/26 07:58:45;;;;;;;;;25.75;23.50;;;;;5.72;67.36;103067.16;5091003;27;60955;-78
2022/02/26 08:01:10;;;;;;;;;27.25;20.75;;;;;5.75;67.54;103077.88;5092663;27;45356;-79
2022/02/26 08:03:36;;;;;;;;;24.00;20.00;;;;;5.78;67.77;103074.53;5089069;27;45351;-79
2022/02/26 08:06:01;;;;;;;;;28.00;20.50;;;;;5.82;67.62;103073.03;5089420;27;58689;-78
2022/02/26 08:08:26;;;;;;;;;20.75;18.25;;;;;5.86;67.61;103069.78;5093331;27;45614;-79
2022/02/26 08:10:52;;;;;;;;;38.75;27.25;;;;;5.90;68.40;103072.72;5086562;27;55272;-78
2022/02/26 08:13:17;;;;;;;;;32.00;23.75;;;;;5.96;67.57;103074.84;5088504;27;45529;-77
2022/02/26 08:15:46;;;;;;;;;24.75;23.25;;;;;5.96;67.67;103064.38;5090020;27;65875;-78
2022/02/26 08:18:13;;;;;;;;;22.50;18.25;;;;;6.06;67.57;103068.50;5088096;27;46517;-79
2022/02/26 08:20:38;;;;;;;;;22.75;21.25;;;;;6.09;67.88;103068.72;5084671;27;45501;-76
2022/02/26 08:23:04;;;;;;;;;21.75;18.50;;;;;6.13;67.63;103069.03;5084696;27;46145;-77
2022/02/26 08:25:29;;;;;;;;;21.00;18.25;;;;;6.20;67.66;103081.72;5087426;27;46129;-77
2022/02/26 08:27:54;;;;;;;;;26.25;19.25;;;;;6.19;67.70;103066.78;5092435;27;45560;-78
2022/02/26 08:30:20;;;;;;;;;20.00;15.75;;;;;6.31;67.77;103074.53;5090549;27;56271;-78
2022/02/26 08:32:46;;;;;;;;;10.75;7.50;;;;;6.38;67.49;103073.19;5091917;27;45614;-78
2022/02/26 08:35:12;;;;;;;;;13.50;7.75;;;;;6.45;66.96;103067.56;5089910;27;45666;-76
2022/02/26 08:37:37;;;;;;;;;10.00;6.00;;;;;6.53;67.13;103075.09;5086198;27;45485;-76
2022/02/26 08:40:04;;;;;;;;;14.75;9.00;;;;;6.64;67.13;103072.22;5089637;27;45611;-75
2022/02/26 08:42:30;;;;;;;;;13.00;9.25;;;;;6.71;66.84;103074.44;5100437;27;45510;-76
2022/02/26 08:44:56;;;;;;;;;9.25;6.00;;;;;6.78;66.74;103079.28;5086813;27;45563;-76
2022/02/26 08:47:21;;;;;;;;;12.50;8.50;;;;;6.82;66.53;103065.53;5084605;27;45695;-76
2022/02/26 08:49:47;;;;;;;;;14.25;7.00;;;;;6.89;66.59;103065.09;5088548;27;55626;-77
2022/02/26 08:52:12;;;;;;;;;10.25;7.50;;;;;7.00;66.31;103068.38;5088821;27;47587;-76
2022/02/26 08:54:38;;;;;;;;;10.00;7.00;;;;;7.04;66.17;103067.75;5090052;27;47398;-77
2022/02/26 08:57:03;;;;;;;;;15.50;9.00;;;;;7.12;66.02;103066.47;5094050;27;59537;-76
2022/02/26 08:59:29;;;;;;;;;9.00;6.25;;;;;7.19;65.45;103054.63;5095065;27;45477;-76
2022/02/26 09:01:55;;;;;;;;;10.50;6.00;;;;;7.24;65.75;103053.19;5094638;27;45338;-79
2022/02/26 09:04:20;;;;;;;;;10.00;7.75;;;;;7.30;65.05;103065.00;5097027;27;47442;-79
2022/02/26 09:06:45;;;;;;;;;2.25;2.25;;;;;7.32;65.34;103055.47;5089401;27;45410;-78
2022/02/26 09:09:11;;;;;;;;;9.75;6.50;;;;;7.42;64.87;103059.53;5092471;27;53411;-78
2022/02/26 09:11:37;;;;;;;;;5.50;5.50;;;;;7.44;64.47;103046.50;5095772;27;45472;-78
2022/02/26 09:14:03;;;;;;;;;7.00;6.00;;;;;7.52;64.39;103061.91;5094978;27;47552;-78
2022/02/26 09:16:28;;;;;;;;;6.75;6.00;;;;;7.58;64.30;103062.25;5087902;27;45532;-77
2022/02/26 09:18:54;;;;;;;;;10.50;7.00;;;;;7.66;63.81;103059.16;5087856;27;45721;-78
2022/02/26 09:21:20;;;;;;;;;9.75;5.75;;;;;7.67;63.98;103054.03;5090858;27;45503;-77
2022/02/26 09:23:45;;;;;;;;;3.00;3.00;;;;;7.74;62.24;103061.44;5092714;27;47377;-77
2022/02/26 09:26:11;;;;;;;;;6.25;3.50;;;;;7.78;62.07;103052.91;5089985;27;49607;-77
2022/02/26 09:28:39;;;;;;;;;11.00;4.50;;;;;7.79;62.40;103046.84;5097316;27;45623;-77
2022/02/26 09:31:04;;;;;;;;;8.50;5.00;;;;;7.89;62.21;103058.81;5094480;27;45457;-78
2022/02/26 09:33:30;;;;;;;;;7.00;6.00;;;;;7.94;62.51;103053.81;5096498;27;46651;-77
2022/02/26 09:35:59;;;;;;;;;10.75;6.25;;;;;7.93;62.38;103028.28;5096329;27;45381;-78
2022/02/26 09:38:25;;;;;;;;;10.25;5.25;;;;;7.99;62.48;103033.91;5083529;27;45863;-78
2022/02/26 09:40:53;;;;;;;;;6.25;5.00;;;;;8.12;62.25;103046.94;5096764;27;45425;-77
2022/02/26 09:43:18;;;;;;;;;7.25;5.00;;;;;8.16;62.08;103035.78;5095834;27;46562;-76
2022/02/26 09:45:44;;;;;;;;;6.75;6.25;;;;;8.23;61.74;103030.03;5072080;27;63217;-78
2022/02/26 09:48:09;;;;;;;;;8.50;6.25;;;;;8.29;61.31;103034.72;5092954;27;45507;-77
2022/02/26 09:50:34;;;;;;;;;2.75;2.50;;;;;8.35;61.66;103035.97;5091932;27;47210;-76
2022/02/26 09:53:00;;;;;;;;;4.00;3.25;;;;;8.40;61.28;103031.91;5091902;27;56379;-76
2022/02/26 09:55:25;;;;;;;;;9.50;6.00;;;;;8.46;60.71;103033.97;5097468;27;48323;-76
2022/02/26 09:57:50;;;;;;;;;7.00;3.00;;;;;8.49;60.27;103033.25;5088294;27;55142;-77
2022/02/26 10:00:16;;;;;;;;;8.00;6.00;;;;;8.55;58.91;103034.47;5095099;27;53204;-77
2022/02/26 10:02:45;;;;;;;;;6.00;6.00;;;;;8.61;59.60;103034.81;5091115;27;46391;-77
2022/02/26 10:05:11;;;;;;;;;9.00;6.00;;;;;8.67;58.78;103028.97;5090517;27;45498;-76
2022/02/26 10:07:37;;;;;;;;;7.50;5.50;;;;;8.68;59.70;103011.44;5092937;27;45428;-77
2022/02/26 10:10:29;;;;;;;;;6.00;3.00;;;;;8.79;59.54;103031.34;5088624;27;45485;-76
2022/02/26 10:12:57;;;;;;;;;5.50;4.00;;;;;8.84;59.44;103024.59;5091527;27;46858;-77
2022/02/26 10:15:27;;;;;;;;;4.50;4.50;;;;;8.91;58.26;103021.47;5090816;27;45733;-76
2022/02/26 10:18:25;;;;;;;;;3.00;3.00;;;;;8.98;58.38;103023.59;5094422;27;46026;-78
2022/02/26 10:20:59;;;;;;;;;7.00;3.00;;;;;9.02;58.22;103017.66;5092779;27;45295;-78
2022/02/26 10:23:25;;;;;;;;;6.00;4.00;;;;;9.10;57.92;103025.97;5087847;27;46995;-77
2022/02/26 10:25:50;;;;;;;;;3.00;3.00;;;;;9.08;56.79;103003.91;5094528;27;59910;-77
2022/02/26 10:28:16;;;;;;;;;6.50;3.00;;;;;9.16;57.13;103011.41;5077050;27;45543;-78
2022/02/26 10:30:44;;;;;;;;;7.00;3.00;;;;;9.22;57.48;103013.44;5083240;27;46537;-77
2022/02/26 10:33:11;;;;;;;;;6.25;5.50;;;;;9.26;57.43;103002.19;5091174;27;47577;-77
2022/02/26 10:35:36;;;;;;;;;3.67;2.00;;;;;9.33;57.40;102998.16;5303820;22;46047;-77
2022/02/26 10:38:28;;;;;;;;;11.50;7.50;;;;;9.41;56.86;103010.00;5088924;27;45523;-77
2022/02/26 10:41:25;;;;;;;;;3.00;2.75;;;;;9.44;56.99;103000.53;5094596;27;46052;-79
2022/02/26 10:43:57;;;;;;;;;6.00;4.00;;;;;9.52;55.50;103007.91;5089142;27;45586;-78
2022/02/26 10:46:28;;;;;;;;;4.00;2.00;;;;;9.58;54.58;103000.28;5087306;27;45748;-78
2022/02/26 10:49:02;;;;;;;;;8.00;2.67;;;;;9.59;55.11;102984.56;5088833;27;45724;-79
2022/02/26 10:51:33;;;;;;;;;7.33;4.00;;;;;9.66;55.04;102991.03;5092307;27;45638;-78
2022/02/26 10:53:59;;;;;;;;;6.00;3.00;;;;;9.74;54.58;102994.94;5087189;27;46873;-79
2022/02/26 10:56:35;;;;;;;;;2.00;1.67;;;;;9.79;54.55;103001.34;5092786;27;45749;-78
2022/02/26 10:59:00;;;;;;;;;2.00;2.00;;;;;9.83;54.18;102991.84;5094766;27;45390;-79
2022/02/26 11:01:26;;;;;;;;;4.00;2.00;;;;;9.85;52.64;102983.16;5090434;27;45589;-78
2022/02/26 11:03:56;;;;;;;;;3.33;2.67;;;;;9.91;54.07;102983.50;5075959;27;63026;-78
2022/02/26 11:06:21;;;;;;;;;6.33;2.00;;;;;9.91;53.50;102975.59;5088086;27;45758;-80
2022/02/26 11:08:47;;;;;;;;;3.00;2.00;;;;;9.96;51.79;102967.88;5074484;27;45526;-77
2022/02/26 11:11:12;;;;;;;;;2.00;2.00;;;;;10.05;51.45;102970.94;5092102;27;45488;-77
2022/02/26 11:13:38;;;;;;;;;5.33;3.00;;;;;10.09;52.33;102958.81;5092762;27;46347;-76
2022/02/26 11:16:04;;;;;;;;;3.00;2.00;;;;;10.07;52.98;102952.56;5090980;27;45961;-78